createdAt,value
2018-11-11T00:00:12.730Z,26.43
2018-11-11T00:02:41.705Z,26.73
2018-11-11T00:05:11.449Z,32.70
2018-11-11T00:07:40.904Z,27.60
2018-11-11T00:10:09.887Z,31.77
2018-11-11T00:12:39.439Z,27.47
2018-11-11T00:15:10.648Z,26.27
2018-11-11T00:17:40.144Z,30.40
2018-11-11T00:20:09.900Z,28.23
2018-11-11T00:22:39.154Z,29.50
2018-11-11T00:25:08.371Z,24.37
2018-11-11T00:27:38.153Z,30.50
2018-11-11T00:30:11.751Z,22.97
2018-11-11T00:32:40.955Z,24.50
2018-11-11T00:35:10.312Z,26.50
2018-11-11T00:37:39.674Z,24.90
2018-11-11T00:40:09.476Z,22.70
2018-11-11T00:42:38.445Z,22.73
2018-11-11T00:45:08.205Z,20.10
2018-11-11T00:47:37.191Z,22.13
2018-11-11T00:50:07.515Z,21.73
2018-11-11T00:52:36.479Z,20.83
2018-11-11T00:55:07.360Z,20.27
2018-11-11T00:57:36.360Z,20.70
2018-11-11T01:00:07.264Z,17.50
2018-11-11T01:02:36.291Z,19.70
2018-11-11T01:05:06.464Z,20.97
2018-11-11T01:07:35.592Z,22.80
2018-11-11T01:10:05.712Z,21.30
2018-11-11T01:12:34.730Z,31.13
2018-11-11T01:15:03.759Z,20.27
2018-11-11T01:17:32.771Z,23.40
2018-11-11T01:20:01.730Z,22.00
2018-11-11T01:22:30.683Z,21.73
2018-11-11T01:24:59.623Z,21.70
2018-11-11T01:27:28.664Z,19.60
2018-11-11T01:29:58.790Z,20.03
2018-11-11T01:32:27.786Z,19.13
2018-11-11T01:34:56.747Z,17.40
2018-11-11T01:37:25.737Z,19.97
2018-11-11T01:39:54.724Z,22.97
2018-11-11T01:42:23.754Z,18.67
2018-11-11T01:44:52.744Z,20.47
2018-11-11T01:47:21.725Z,20.33
2018-11-11T01:49:50.685Z,20.90
2018-11-11T01:52:19.648Z,22.30
2018-11-11T01:54:48.612Z,17.70
2018-11-11T01:57:17.604Z,23.27
2018-11-11T01:59:46.577Z,23.00
2018-11-11T02:02:15.561Z,19.20
2018-11-11T02:04:44.484Z,22.80
2018-11-11T02:07:13.462Z,22.07
2018-11-11T02:09:42.459Z,24.37
2018-11-11T02:12:11.411Z,25.03
2018-11-11T02:14:40.361Z,23.07
2018-11-11T02:17:09.352Z,23.83
2018-11-11T02:19:38.359Z,30.30
2018-11-11T02:22:07.406Z,27.10
2018-11-11T02:24:36.469Z,25.87
2018-11-11T02:27:06.152Z,26.00
2018-11-11T02:29:35.135Z,23.57
2018-11-11T02:32:04.063Z,28.37
2018-11-11T02:34:33.042Z,27.17
2018-11-11T02:37:02.009Z,29.43
2018-11-11T02:39:31.052Z,21.43
2018-11-11T02:42:00.340Z,21.53
2018-11-11T02:44:29.346Z,25.10
2018-11-11T02:46:58.304Z,25.90
2018-11-11T02:49:27.281Z,24.13
2018-11-11T02:51:56.287Z,24.13
2018-11-11T02:54:25.335Z,23.00
2018-11-11T02:56:54.303Z,29.20
2018-11-11T02:59:23.260Z,30.53
2018-11-11T03:01:52.250Z,24.60
2018-11-11T03:04:21.315Z,23.57
2018-11-11T03:06:50.217Z,22.00
2018-11-11T03:09:19.213Z,23.90
2018-11-11T03:11:48.171Z,25.23
2018-11-11T03:14:17.285Z,25.00
2018-11-11T03:16:46.249Z,25.57
2018-11-11T03:19:15.616Z,25.60
2018-11-11T03:21:44.605Z,20.90
2018-11-11T03:24:13.599Z,24.20
2018-11-11T03:26:42.544Z,26.33
2018-11-11T03:29:11.551Z,22.13
2018-11-11T03:31:40.497Z,25.43
2018-11-11T03:34:10.822Z,25.63
2018-11-11T03:36:39.772Z,27.00
2018-11-11T03:39:09.689Z,23.00
2018-11-11T03:41:39.027Z,25.83
2018-11-11T03:44:08.023Z,22.27
2018-11-11T03:46:36.973Z,22.77
2018-11-11T03:49:05.987Z,25.03
2018-11-11T03:51:34.959Z,21.10
2018-11-11T03:54:03.962Z,22.87
2018-11-11T03:56:32.921Z,21.47
2018-11-11T03:59:01.908Z,24.80
2018-11-11T04:01:30.877Z,21.17
2018-11-11T04:03:59.829Z,22.43
2018-11-11T04:06:29.036Z,22.60
2018-11-11T04:08:58.037Z,24.37
2018-11-11T04:11:27.061Z,27.70
2018-11-11T04:13:56.072Z,24.10
2018-11-11T04:16:25.117Z,23.20
2018-11-11T04:18:54.063Z,22.13
2018-11-11T04:21:23.094Z,26.73
2018-11-11T04:23:52.072Z,24.80
2018-11-11T04:26:21.034Z,25.57
2018-11-11T04:28:49.957Z,27.60
2018-11-11T04:31:18.990Z,25.90
2018-11-11T04:33:47.937Z,26.47
2018-11-11T04:36:17.594Z,20.83
2018-11-11T04:38:46.560Z,21.53
2018-11-11T04:41:15.564Z,25.43
2018-11-11T04:43:45.107Z,22.53
2018-11-11T04:46:14.269Z,25.83
2018-11-11T04:48:43.184Z,25.10
2018-11-11T04:51:13.598Z,25.00
2018-11-11T04:53:42.557Z,22.27
2018-11-11T04:56:11.521Z,24.10
2018-11-11T04:58:40.483Z,22.07
2018-11-11T05:01:09.490Z,19.20
2018-11-11T05:03:38.546Z,24.10
2018-11-11T05:06:07.562Z,24.10
2018-11-11T05:08:36.507Z,24.97
2018-11-11T05:11:05.709Z,26.50
2018-11-11T05:13:34.641Z,19.47
2018-11-11T05:16:03.604Z,22.80
2018-11-11T05:18:32.558Z,20.43
2018-11-11T05:21:01.528Z,19.10
2018-11-11T05:23:30.493Z,23.77
2018-11-11T05:25:59.468Z,24.63
2018-11-11T05:28:29.131Z,27.73
2018-11-11T05:30:58.208Z,23.07
2018-11-11T05:33:27.149Z,23.47
2018-11-11T05:35:56.134Z,26.17
2018-11-11T05:38:25.083Z,27.70
2018-11-11T05:40:54.084Z,27.27
2018-11-11T05:43:23.061Z,23.07
2018-11-11T05:45:52.057Z,23.50
2018-11-11T05:48:21.515Z,28.83
2018-11-11T05:50:50.491Z,26.40
2018-11-11T05:53:19.431Z,31.30
2018-11-11T05:55:48.371Z,23.10
2018-11-11T05:58:17.677Z,28.10
2018-11-11T06:00:46.728Z,24.87
2018-11-11T06:03:15.694Z,22.20
2018-11-11T06:05:44.709Z,22.60
2018-11-11T06:08:13.703Z,22.40
2018-11-11T06:10:44.129Z,28.83
2018-11-11T06:13:13.132Z,25.30
2018-11-11T06:15:42.081Z,22.63
2018-11-11T06:18:11.097Z,24.60
2018-11-11T06:20:40.294Z,25.70
2018-11-11T06:23:12.033Z,21.20
2018-11-11T06:25:41.813Z,21.10
2018-11-11T06:28:11.981Z,24.73
2018-11-11T06:30:41.234Z,21.30
2018-11-11T06:33:10.246Z,19.87
2018-11-11T06:35:39.192Z,19.83
2018-11-11T06:38:08.158Z,36.30
2018-11-11T06:40:41.756Z,17.83
2018-11-11T06:43:10.729Z,23.40
2018-11-11T06:45:39.690Z,21.70
2018-11-11T06:48:08.751Z,21.20
2018-11-11T06:50:37.654Z,24.63
2018-11-11T06:53:06.627Z,21.47
2018-11-11T06:55:35.586Z,15.70
2018-11-11T06:58:04.901Z,20.57
2018-11-11T07:00:33.810Z,16.73
2018-11-11T07:03:14.357Z,15.37
2018-11-11T07:05:43.315Z,18.20
2018-11-11T07:08:12.318Z,15.13
2018-11-11T07:10:41.293Z,13.03
2018-11-11T07:13:10.333Z,15.63
2018-11-11T07:15:39.325Z,17.83
2018-11-11T07:18:08.323Z,15.80
2018-11-11T07:20:37.264Z,19.60
2018-11-11T07:23:06.828Z,17.63
2018-11-11T07:25:35.787Z,16.20
2018-11-11T07:28:05.246Z,14.90
2018-11-11T07:30:34.684Z,14.03
2018-11-11T07:33:03.676Z,15.30
2018-11-11T07:35:33.912Z,13.70
2018-11-11T07:38:02.907Z,17.10
2018-11-11T07:40:31.928Z,15.50
2018-11-11T07:43:00.949Z,16.67
2018-11-11T07:45:29.891Z,21.90
2018-11-11T07:47:58.937Z,15.70
2018-11-11T07:50:27.848Z,23.60
2018-11-11T07:52:56.918Z,16.27
2018-11-11T07:55:25.914Z,16.20
2018-11-11T07:57:54.911Z,14.10
2018-11-11T08:00:26.057Z,15.83
2018-11-11T08:02:55.549Z,16.13
2018-11-11T08:05:24.512Z,14.50
2018-11-11T08:07:53.487Z,15.30
2018-11-11T08:10:33.720Z,17.33
2018-11-11T08:13:02.796Z,15.97
2018-11-11T08:15:32.422Z,12.27
2018-11-11T08:18:01.483Z,14.10
2018-11-11T08:20:31.511Z,14.80
2018-11-11T08:23:00.550Z,16.33
2018-11-11T08:25:29.526Z,18.23
2018-11-11T08:27:58.807Z,12.10
2018-11-11T08:30:27.755Z,14.47
2018-11-11T08:32:56.784Z,14.87
2018-11-11T08:35:25.743Z,14.30
2018-11-11T08:37:54.717Z,13.37
2018-11-11T08:40:23.747Z,13.80
2018-11-11T08:42:53.160Z,13.10
2018-11-11T08:45:22.087Z,15.97
2018-11-11T08:47:51.068Z,16.03
2018-11-11T08:50:19.989Z,14.57
2018-11-11T08:52:48.957Z,11.00
2018-11-11T08:55:17.934Z,12.03
2018-11-11T08:57:46.988Z,12.40
2018-11-11T09:00:15.880Z,13.50
2018-11-11T09:02:44.888Z,14.63
2018-11-11T09:05:13.979Z,13.30
2018-11-11T09:07:42.972Z,12.40
2018-11-11T09:10:12.654Z,12.00
2018-11-11T09:12:41.657Z,15.93
2018-11-11T09:15:12.576Z,13.17
2018-11-11T09:17:41.908Z,15.23
2018-11-11T09:20:16.058Z,12.13
2018-11-11T09:22:45.639Z,12.13
2018-11-11T09:25:14.650Z,13.50
2018-11-11T09:27:43.679Z,19.07
2018-11-11T09:30:14.168Z,13.00
2018-11-11T09:32:43.477Z,11.90
2018-11-11T09:35:12.561Z,12.17
2018-11-11T09:37:41.837Z,10.40
2018-11-11T09:40:11.895Z,7.70
2018-11-11T09:42:41.026Z,11.13
2018-11-11T09:45:11.826Z,11.10
2018-11-11T09:47:40.958Z,11.67
2018-11-11T09:50:11.759Z,11.97
2018-11-11T09:52:40.949Z,10.03
2018-11-11T09:55:11.160Z,11.30
2018-11-11T09:57:40.564Z,9.10
2018-11-11T10:00:14.273Z,9.90
2018-11-11T10:02:44.611Z,13.83
2018-11-11T10:06:18.739Z,10.77
2018-11-11T10:08:53.149Z,8.20
2018-11-11T10:11:30.031Z,9.40
2018-11-11T10:14:04.466Z,9.73
2018-11-11T10:16:38.771Z,11.27
2018-11-11T10:21:16.757Z,8.77
2018-11-11T10:23:51.535Z,10.80
2018-11-11T10:26:28.009Z,8.03
2018-11-11T10:29:20.735Z,11.60
2018-11-11T10:32:00.940Z,10.33
2018-11-11T10:35:04.233Z,10.37
2018-11-11T10:37:38.819Z,7.20
2018-11-11T10:40:14.392Z,7.97
2018-11-11T10:42:54.971Z,6.83
2018-11-11T10:45:28.976Z,8.03
2018-11-11T10:48:03.588Z,8.93
2018-11-11T10:50:39.448Z,10.97
2018-11-11T10:53:08.568Z,5.73
2018-11-11T10:55:37.568Z,9.10
2018-11-11T10:58:06.657Z,7.57
2018-11-11T11:00:41.184Z,8.80
2018-11-11T11:03:15.510Z,8.07
2018-11-11T11:05:44.516Z,7.73
2018-11-11T11:08:13.480Z,7.90
2018-11-11T11:10:42.733Z,6.43
2018-11-11T11:13:11.910Z,10.13
2018-11-11T11:15:40.900Z,6.37
2018-11-11T11:18:09.850Z,7.17
2018-11-11T11:20:38.818Z,6.43
2018-11-11T11:23:07.899Z,7.67
2018-11-11T11:25:36.829Z,7.40
2018-11-11T11:28:05.852Z,7.00
2018-11-11T11:30:34.822Z,6.37
2018-11-11T11:33:03.810Z,7.97
2018-11-11T11:35:32.858Z,6.40
2018-11-11T11:38:01.878Z,5.60
2018-11-11T11:40:30.968Z,6.30
2018-11-11T11:42:59.929Z,6.00
2018-11-11T11:45:28.897Z,5.57
2018-11-11T11:47:57.882Z,4.97
2018-11-11T11:50:26.938Z,5.50
2018-11-11T11:52:55.838Z,4.50
2018-11-11T11:55:24.833Z,4.70
2018-11-11T11:58:22.564Z,4.20
2018-11-11T12:00:51.643Z,5.33
2018-11-11T12:03:20.609Z,8.17
2018-11-11T12:05:49.637Z,5.00
2018-11-11T12:08:18.650Z,5.40
2018-11-11T12:10:47.617Z,5.13
2018-11-11T12:13:17.093Z,7.40
2018-11-11T12:15:46.168Z,4.63
2018-11-11T12:18:15.146Z,4.40
2018-11-11T12:20:44.222Z,5.50
2018-11-11T12:23:13.341Z,3.83
2018-11-11T12:25:42.517Z,4.53
2018-11-11T12:28:11.508Z,5.20
2018-11-11T12:30:40.499Z,8.63
2018-11-11T12:33:09.463Z,4.60
2018-11-11T12:35:38.465Z,11.37
2018-11-11T12:38:07.464Z,5.60
2018-11-11T12:40:36.471Z,4.80
2018-11-11T12:43:05.479Z,5.10
2018-11-11T12:45:34.484Z,4.03
2018-11-11T12:48:03.473Z,4.80
2018-11-11T12:50:35.400Z,5.37
2018-11-11T12:53:05.066Z,5.33
2018-11-11T12:55:34.545Z,6.80
2018-11-11T12:58:04.957Z,5.03
2018-11-11T13:00:33.928Z,7.30
2018-11-11T13:03:03.390Z,7.27
2018-11-11T13:05:32.328Z,6.63
2018-11-11T13:08:01.337Z,5.13
2018-11-11T13:10:30.343Z,5.23
2018-11-11T13:12:59.373Z,6.03
2018-11-11T13:15:28.380Z,5.30
2018-11-11T13:17:57.358Z,5.80
2018-11-11T13:20:26.346Z,6.20
2018-11-11T13:22:55.487Z,5.30
2018-11-11T13:25:24.359Z,5.43
2018-11-11T13:27:53.430Z,4.60
2018-11-11T13:30:22.362Z,4.57
2018-11-11T13:32:51.409Z,7.57
2018-11-11T13:35:20.389Z,12.23
2018-11-11T13:37:49.414Z,5.80
2018-11-11T13:40:19.391Z,5.10
2018-11-11T13:42:48.397Z,6.80
2018-11-11T13:45:19.615Z,7.37
2018-11-11T13:47:49.161Z,6.20
2018-11-11T13:50:20.456Z,6.57
2018-11-11T13:52:49.618Z,9.23
2018-11-11T13:55:19.301Z,8.53
2018-11-11T13:57:48.806Z,7.30
2018-11-11T14:00:23.220Z,7.30
2018-11-11T14:02:52.178Z,4.27
2018-11-11T14:05:21.695Z,7.93
2018-11-11T14:07:52.091Z,6.50
2018-11-11T14:10:21.015Z,7.37
2018-11-11T14:12:49.983Z,7.97
2018-11-11T14:15:22.434Z,5.80
2018-11-11T14:17:51.735Z,5.93
2018-11-11T14:20:21.962Z,12.27
2018-11-11T14:22:52.498Z,9.63
2018-11-11T14:25:24.255Z,6.63
2018-11-11T14:27:53.220Z,9.70
2018-11-11T14:30:23.542Z,7.43
2018-11-11T14:32:54.862Z,6.87
2018-11-11T14:35:24.025Z,7.77
2018-11-11T14:37:53.554Z,7.47
2018-11-11T14:40:24.639Z,9.93
2018-11-11T14:42:53.664Z,9.17
2018-11-11T14:45:23.138Z,7.33
2018-11-11T14:47:53.377Z,9.33
2018-11-11T14:50:23.044Z,8.47
2018-11-11T14:52:52.188Z,11.13
2018-11-11T14:55:25.500Z,5.70
2018-11-11T14:58:01.965Z,8.30
2018-11-11T15:00:32.256Z,6.43
2018-11-11T15:03:03.624Z,8.40
2018-11-11T15:05:32.790Z,14.40
2018-11-11T15:08:02.693Z,8.63
2018-11-11T15:10:31.739Z,6.17
2018-11-11T15:13:00.720Z,6.37
2018-11-11T15:15:29.660Z,6.83
2018-11-11T15:17:59.615Z,10.10
2018-11-11T15:20:28.656Z,5.40
2018-11-11T15:22:58.284Z,7.63
2018-11-11T15:25:28.566Z,6.47
2018-11-11T15:28:00.553Z,7.60
2018-11-11T15:30:30.859Z,15.80
2018-11-11T15:33:00.451Z,7.67
2018-11-11T15:35:29.739Z,6.33
2018-11-11T15:37:58.742Z,6.80
2018-11-11T15:40:31.127Z,6.60
2018-11-11T15:43:00.144Z,6.30
2018-11-11T15:45:30.321Z,9.07
2018-11-11T15:47:59.520Z,7.13
2018-11-11T15:50:29.770Z,6.83
2018-11-11T15:52:59.984Z,7.50
2018-11-11T15:55:30.212Z,14.30
2018-11-11T15:57:59.180Z,7.90
2018-11-11T16:00:30.485Z,13.53
2018-11-11T16:02:59.426Z,10.70
2018-11-11T16:05:28.409Z,8.10
2018-11-11T16:07:59.521Z,7.23
2018-11-11T16:10:29.804Z,9.33
2018-11-11T16:12:58.800Z,8.87
2018-11-11T16:15:36.396Z,5.67
2018-11-11T16:18:07.405Z,6.00
2018-11-11T16:20:36.378Z,13.27
2018-11-11T16:23:06.318Z,5.27
2018-11-11T16:25:35.565Z,6.73
2018-11-11T16:28:06.334Z,12.77
2018-11-11T16:30:36.928Z,9.63
2018-11-11T16:33:07.570Z,7.73
2018-11-11T16:35:36.554Z,9.80
2018-11-11T16:38:06.230Z,7.67
2018-11-11T16:40:36.533Z,7.47
2018-11-11T16:43:05.440Z,6.53
2018-11-11T16:45:35.284Z,8.33
2018-11-11T16:48:04.701Z,9.10
2018-11-11T16:50:34.710Z,8.50
2018-11-11T16:53:05.939Z,6.60
2018-11-11T16:55:35.616Z,9.17
2018-11-11T16:58:04.676Z,5.30
2018-11-11T17:00:34.996Z,6.57
2018-11-11T17:03:04.876Z,12.40
2018-11-11T17:05:35.005Z,7.73
2018-11-11T17:08:05.080Z,8.23
2018-11-11T17:10:35.363Z,8.20
2018-11-11T17:13:06.287Z,7.73
2018-11-11T17:15:35.330Z,8.97
2018-11-11T17:18:04.304Z,7.90
2018-11-11T17:20:33.378Z,9.07
2018-11-11T17:23:04.797Z,10.33
2018-11-11T17:25:33.760Z,6.60
2018-11-11T17:28:02.827Z,16.33
2018-11-11T17:30:39.552Z,13.30
2018-11-11T17:33:11.489Z,7.57
2018-11-11T17:35:41.318Z,13.97
2018-11-11T17:38:13.756Z,8.60
2018-11-11T17:40:43.165Z,6.53
2018-11-11T17:43:22.189Z,9.73
2018-11-11T17:45:52.631Z,9.47
2018-11-11T17:48:29.380Z,6.70
2018-11-11T17:51:04.752Z,6.17
2018-11-11T17:53:40.140Z,10.20
2018-11-11T17:56:15.155Z,9.60
2018-11-11T17:58:51.438Z,9.37
2018-11-11T18:01:26.856Z,7.43
2018-11-11T18:03:59.585Z,8.67
2018-11-11T18:06:32.754Z,13.10
2018-11-11T18:09:08.763Z,7.80
2018-11-11T18:11:48.524Z,12.03
2018-11-11T18:14:23.102Z,8.57
2018-11-11T18:16:57.961Z,10.10
2018-11-11T18:19:28.123Z,10.37
2018-11-11T18:21:57.717Z,7.00
2018-11-11T18:24:26.682Z,9.23
2018-11-11T18:26:55.711Z,10.53
2018-11-11T18:29:24.739Z,7.80
2018-11-11T18:31:53.857Z,9.57
2018-11-11T18:34:23.053Z,7.03
2018-11-11T18:36:52.057Z,8.97
2018-11-11T18:39:21.144Z,10.37
2018-11-11T18:41:50.143Z,9.97
2018-11-11T18:44:19.345Z,8.63
2018-11-11T18:46:48.328Z,9.00
2018-11-11T18:49:17.316Z,11.60
2018-11-11T18:51:46.514Z,8.80
2018-11-11T18:54:15.561Z,9.40
2018-11-11T18:56:45.322Z,8.93
2018-11-11T18:59:14.355Z,10.60
2018-11-11T19:01:43.338Z,10.17
2018-11-11T19:04:12.722Z,6.97
2018-11-11T19:06:41.757Z,8.60
2018-11-11T19:09:12.537Z,9.50
2018-11-11T19:11:41.491Z,5.60
2018-11-11T19:14:10.466Z,10.47
2018-11-11T19:16:39.508Z,7.43
2018-11-11T19:19:08.950Z,6.50
2018-11-11T19:21:37.970Z,9.07
2018-11-11T19:24:08.063Z,7.47
2018-11-11T19:26:37.543Z,9.30
2018-11-11T19:29:06.581Z,7.23
2018-11-11T19:31:35.532Z,8.93
2018-11-11T19:34:04.808Z,7.90
2018-11-11T19:36:33.783Z,8.80
2018-11-11T19:39:03.031Z,11.70
2018-11-11T19:41:32.159Z,8.40
2018-11-11T19:44:01.104Z,10.60
2018-11-11T19:46:30.065Z,5.90
2018-11-11T19:48:59.105Z,6.10
2018-11-11T19:51:28.091Z,5.53
2018-11-11T19:53:57.159Z,12.10
2018-11-11T19:56:26.121Z,5.83
2018-11-11T19:58:55.093Z,7.30
2018-11-11T20:01:24.442Z,10.40
2018-11-11T20:03:53.640Z,5.60
2018-11-11T20:06:22.633Z,10.10
2018-11-11T20:08:56.144Z,14.13
2018-11-11T20:11:25.733Z,13.80
2018-11-11T20:13:54.824Z,7.60
2018-11-11T20:16:23.879Z,10.93
2018-11-11T20:18:53.517Z,13.33
2018-11-11T20:21:22.509Z,6.90
2018-11-11T20:23:51.539Z,7.40
2018-11-11T20:26:20.552Z,14.13
2018-11-11T20:28:49.507Z,7.10
2018-11-11T20:31:18.539Z,7.93
2018-11-11T20:33:47.564Z,14.97
2018-11-11T20:36:16.618Z,13.00
2018-11-11T20:38:45.645Z,9.30
2018-11-11T20:41:14.594Z,11.53
2018-11-11T20:43:43.604Z,8.17
2018-11-11T20:46:12.683Z,9.63
2018-11-11T20:48:41.614Z,7.87
2018-11-11T20:51:10.571Z,8.73
2018-11-11T20:53:39.520Z,9.00
2018-11-11T20:56:08.568Z,6.37
2018-11-11T20:58:37.489Z,8.70
2018-11-11T21:01:06.483Z,8.00
2018-11-11T21:03:35.443Z,9.73
2018-11-11T21:06:04.441Z,8.63
2018-11-11T21:08:34.181Z,9.23
2018-11-11T21:11:03.127Z,6.90
2018-11-11T21:13:32.048Z,6.47
2018-11-11T21:16:00.986Z,4.93
2018-11-11T21:18:29.948Z,6.87
2018-11-11T21:20:58.945Z,5.73
2018-11-11T21:23:27.924Z,5.90
2018-11-11T21:25:56.925Z,7.30
2018-11-11T21:28:25.876Z,5.83
2018-11-11T21:30:54.844Z,7.60
2018-11-11T21:33:23.768Z,6.63
2018-11-11T21:35:52.736Z,7.47
2018-11-11T21:38:21.758Z,10.00
2018-11-11T21:40:50.752Z,7.63
2018-11-11T21:43:21.141Z,9.00
2018-11-11T21:45:51.702Z,5.90
2018-11-11T21:48:20.722Z,7.43
2018-11-11T21:50:49.705Z,4.10
2018-11-11T21:53:35.983Z,9.23
2018-11-11T21:56:05.296Z,5.70
2018-11-11T21:58:34.310Z,5.30
2018-11-11T22:01:04.008Z,3.93
2018-11-11T22:03:33.821Z,3.67
2018-11-11T22:06:03.091Z,3.90
2018-11-11T22:08:39.278Z,5.97
2018-11-11T22:11:10.079Z,6.50
2018-11-11T22:13:39.879Z,3.57
2018-11-11T22:16:10.062Z,4.10
2018-11-11T22:18:39.011Z,6.07
2018-11-11T22:21:08.013Z,5.00
2018-11-11T22:23:37.017Z,3.50
2018-11-11T22:26:05.995Z,5.30
2018-11-11T22:28:34.990Z,4.60
2018-11-11T22:31:03.969Z,5.30
2018-11-11T22:33:33.012Z,4.80
2018-11-11T22:36:01.943Z,3.13
2018-11-11T22:38:30.936Z,4.07
2018-11-11T22:40:59.923Z,4.60
2018-11-11T22:43:28.868Z,3.30
2018-11-11T22:45:57.844Z,3.90
2018-11-11T22:48:26.824Z,3.30
2018-11-11T22:50:55.766Z,3.50
2018-11-11T22:53:24.888Z,3.53
2018-11-11T22:55:53.830Z,3.60
2018-11-11T22:58:22.786Z,3.60
2018-11-11T23:00:57.059Z,3.27
2018-11-11T23:03:26.005Z,4.97
2018-11-11T23:05:54.937Z,3.00
2018-11-11T23:08:23.942Z,2.60
2018-11-11T23:10:52.914Z,2.80
2018-11-11T23:13:21.876Z,2.77
2018-11-11T23:15:50.884Z,4.17
2018-11-11T23:18:19.820Z,5.33
2018-11-11T23:20:48.781Z,3.10
2018-11-11T23:23:17.761Z,2.80
2018-11-11T23:25:46.718Z,3.10
2018-11-11T23:28:15.793Z,4.17
2018-11-11T23:30:44.756Z,3.80
2018-11-11T23:33:13.737Z,2.80
2018-11-11T23:35:42.683Z,4.53
2018-11-11T23:38:11.634Z,4.37
2018-11-11T23:40:40.583Z,3.27
2018-11-11T23:43:09.557Z,3.00
2018-11-11T23:45:39.617Z,3.40
2018-11-11T23:48:08.617Z,2.80
2018-11-11T23:50:37.568Z,5.07
2018-11-11T23:53:06.504Z,2.77
2018-11-11T23:55:35.481Z,5.43
2018-11-11T23:58:04.492Z,2.73
